sensor_id;sensor_type;location;lat;lon;timestamp;P1;durP1;ratioP1;P2;durP2;ratioP2
17091;SDS011;8661;45.700;4.880;2023-05-07T00:00:36;3.43;;;2.50;;
17091;SDS011;8661;45.700;4.880;2023-05-07T00:03:06;4.13;;;2.10;;
17091;SDS011;8661;45.700;4.880;2023-05-07T00:05:33;3.87;;;2.10;;
17091;SDS011;8661;45.700;4.880;2023-05-07T00:08:00;3.63;;;2.07;;
17091;SDS011;8661;45.700;4.880;2023-05-07T00:10:27;3.80;;;2.20;;
17091;SDS011;8661;45.700;4.880;2023-05-07T00:12:53;3.90;;;1.70;;
17091;SDS011;8661;45.700;4.880;2023-05-07T00:15:22;3.27;;;1.70;;
17091;SDS011;8661;45.700;4.880;2023-05-07T00:17:49;2.77;;;1.90;;
17091;SDS011;8661;45.700;4.880;2023-05-07T00:20:15;6.17;;;1.80;;
17091;SDS011;8661;45.700;4.880;2023-05-07T00:22:42;1.90;;;1.43;;
17091;SDS011;8661;45.700;4.880;2023-05-07T00:25:09;3.50;;;1.90;;
17091;SDS011;8661;45.700;4.880;2023-05-07T00:27:36;2.77;;;1.87;;
17091;SDS011;8661;45.700;4.880;2023-05-07T00:30:03;2.77;;;1.60;;
17091;SDS011;8661;45.700;4.880;2023-05-07T00:32:33;2.93;;;1.90;;
17091;SDS011;8661;45.700;4.880;2023-05-07T00:35:00;4.00;;;1.80;;
17091;SDS011;8661;45.700;4.880;2023-05-07T00:37:27;3.30;;;1.70;;
17091;SDS011;8661;45.700;4.880;2023-05-07T00:39:54;2.03;;;1.80;;
17091;SDS011;8661;45.700;4.880;2023-05-07T00:42:20;2.67;;;1.90;;
17091;SDS011;8661;45.700;4.880;2023-05-07T00:44:47;3.00;;;1.70;;
17091;SDS011;8661;45.700;4.880;2023-05-07T00:47:15;5.20;;;1.80;;
17091;SDS011;8661;45.700;4.880;2023-05-07T00:49:44;4.37;;;1.63;;
17091;SDS011;8661;45.700;4.880;2023-05-07T00:52:13;1.63;;;1.47;;
17091;SDS011;8661;45.700;4.880;2023-05-07T00:54:41;1.80;;;1.60;;
17091;SDS011;8661;45.700;4.880;2023-05-07T00:57:09;5.27;;;1.77;;
17091;SDS011;8661;45.700;4.880;2023-05-07T00:59:36;2.37;;;1.57;;
17091;SDS011;8661;45.700;4.880;2023-05-07T01:02:04;2.67;;;1.90;;
17091;SDS011;8661;45.700;4.880;2023-05-07T01:04:31;4.70;;;1.80;;
17091;SDS011;8661;45.700;4.880;2023-05-07T01:07:00;2.60;;;1.80;;
17091;SDS011;8661;45.700;4.880;2023-05-07T01:09:28;3.37;;;1.63;;
17091;SDS011;8661;45.700;4.880;2023-05-07T01:11:55;5.27;;;1.93;;
17091;SDS011;8661;45.700;4.880;2023-05-07T01:14:23;2.73;;;1.40;;
17091;SDS011;8661;45.700;4.880;2023-05-07T01:16:51;4.10;;;2.00;;
17091;SDS011;8661;45.700;4.880;2023-05-07T01:19:18;2.00;;;1.60;;
17091;SDS011;8661;45.700;4.880;2023-05-07T01:21:46;3.93;;;1.80;;
17091;SDS011;8661;45.700;4.880;2023-05-07T01:24:16;3.40;;;1.77;;
17091;SDS011;8661;45.700;4.880;2023-05-07T01:26:43;3.50;;;1.70;;
17091;SDS011;8661;45.700;4.880;2023-05-07T01:29:10;5.97;;;1.90;;
17091;SDS011;8661;45.700;4.880;2023-05-07T01:31:38;3.73;;;1.80;;
17091;SDS011;8661;45.700;4.880;2023-05-07T01:34:07;3.30;;;2.07;;
17091;SDS011;8661;45.700;4.880;2023-05-07T01:36:36;2.57;;;1.90;;
17091;SDS011;8661;45.700;4.880;2023-05-07T01:39:04;3.60;;;2.10;;
17091;SDS011;8661;45.700;4.880;2023-05-07T01:41:33;3.20;;;2.10;;
17091;SDS011;8661;45.700;4.880;2023-05-07T01:44:00;5.07;;;2.57;;
17091;SDS011;8661;45.700;4.880;2023-05-07T01:46:29;5.00;;;2.23;;
17091;SDS011;8661;45.700;4.880;2023-05-07T01:48:56;3.70;;;2.20;;
17091;SDS011;8661;45.700;4.880;2023-05-07T01:51:23;3.07;;;2.30;;
17091;SDS011;8661;45.700;4.880;2023-05-07T01:53:51;4.07;;;2.30;;
17091;SDS011;8661;45.700;4.880;2023-05-07T01:56:19;5.13;;;2.60;;
17091;SDS011;8661;45.700;4.880;2023-05-07T01:58:47;2.67;;;2.43;;
17091;SDS011;8661;45.700;4.880;2023-05-07T02:01:16;4.57;;;2.40;;
17091;SDS011;8661;45.700;4.880;2023-05-07T02:03:43;4.57;;;2.40;;
17091;SDS011;8661;45.700;4.880;2023-05-07T02:06:10;4.80;;;2.43;;
17091;SDS011;8661;45.700;4.880;2023-05-07T02:08:37;4.40;;;2.40;;
17091;SDS011;8661;45.700;4.880;2023-05-07T02:11:04;3.33;;;2.67;;
17091;SDS011;8661;45.700;4.880;2023-05-07T02:13:32;5.90;;;2.50;;
17091;SDS011;8661;45.700;4.880;2023-05-07T02:16:01;4.77;;;2.43;;
17091;SDS011;8661;45.700;4.880;2023-05-07T02:18:28;5.03;;;2.50;;
17091;SDS011;8661;45.700;4.880;2023-05-07T02:20:55;3.07;;;2.60;;
17091;SDS011;8661;45.700;4.880;2023-05-07T02:23:21;3.40;;;2.40;;
17091;SDS011;8661;45.700;4.880;2023-05-07T02:25:48;4.87;;;2.40;;
17091;SDS011;8661;45.700;4.880;2023-05-07T02:28:15;5.40;;;2.80;;
17091;SDS011;8661;45.700;4.880;2023-05-07T02:30:42;11.40;;;2.93;;
17091;SDS011;8661;45.700;4.880;2023-05-07T02:33:10;3.67;;;2.20;;
17091;SDS011;8661;45.700;4.880;2023-05-07T02:35:39;3.33;;;2.00;;
17091;SDS011;8661;45.700;4.880;2023-05-07T02:38:05;5.03;;;2.07;;
17091;SDS011;8661;45.700;4.880;2023-05-07T02:40:32;2.47;;;1.90;;
17091;SDS011;8661;45.700;4.880;2023-05-07T02:43:03;6.23;;;2.03;;
17091;SDS011;8661;45.700;4.880;2023-05-07T02:45:30;2.20;;;1.80;;
17091;SDS011;8661;45.700;4.880;2023-05-07T02:47:57;3.23;;;1.60;;
17091;SDS011;8661;45.700;4.880;2023-05-07T02:50:26;2.67;;;1.70;;
17091;SDS011;8661;45.700;4.880;2023-05-07T02:52:53;2.63;;;1.40;;
17091;SDS011;8661;45.700;4.880;2023-05-07T02:55:19;2.57;;;1.60;;
17091;SDS011;8661;45.700;4.880;2023-05-07T02:57:46;5.20;;;1.60;;
17091;SDS011;8661;45.700;4.880;2023-05-07T03:00:14;2.70;;;1.77;;
17091;SDS011;8661;45.700;4.880;2023-05-07T03:02:42;2.40;;;1.50;;
17091;SDS011;8661;45.700;4.880;2023-05-07T03:05:09;3.23;;;1.60;;
17091;SDS011;8661;45.700;4.880;2023-05-07T03:07:38;4.10;;;2.13;;
17091;SDS011;8661;45.700;4.880;2023-05-07T03:10:06;3.10;;;1.47;;
17091;SDS011;8661;45.700;4.880;2023-05-07T03:12:33;3.87;;;1.77;;
17091;SDS011;8661;45.700;4.880;2023-05-07T03:15:02;4.07;;;1.80;;
17091;SDS011;8661;45.700;4.880;2023-05-07T03:17:29;1.93;;;1.50;;
17091;SDS011;8661;45.700;4.880;2023-05-07T03:19:56;2.03;;;1.70;;
17091;SDS011;8661;45.700;4.880;2023-05-07T03:22:23;1.77;;;1.50;;
17091;SDS011;8661;45.700;4.880;2023-05-07T03:24:51;4.27;;;1.53;;
17091;SDS011;8661;45.700;4.880;2023-05-07T03:27:18;2.07;;;1.57;;
17091;SDS011;8661;45.700;4.880;2023-05-07T03:29:44;3.63;;;1.70;;
17091;SDS011;8661;45.700;4.880;2023-05-07T03:32:11;3.83;;;1.87;;
17091;SDS011;8661;45.700;4.880;2023-05-07T03:34:38;2.07;;;1.77;;
17091;SDS011;8661;45.700;4.880;2023-05-07T03:37:05;1.77;;;1.67;;
17091;SDS011;8661;45.700;4.880;2023-05-07T03:39:32;3.83;;;1.63;;
17091;SDS011;8661;45.700;4.880;2023-05-07T03:42:00;1.77;;;1.33;;
17091;SDS011;8661;45.700;4.880;2023-05-07T03:44:27;2.30;;;1.50;;
17091;SDS011;8661;45.700;4.880;2023-05-07T03:46:54;2.63;;;1.70;;
17091;SDS011;8661;45.700;4.880;2023-05-07T03:49:21;1.90;;;1.53;;
17091;SDS011;8661;45.700;4.880;2023-05-07T03:51:48;3.00;;;1.70;;
17091;SDS011;8661;45.700;4.880;2023-05-07T03:54:15;1.73;;;1.40;;
17091;SDS011;8661;45.700;4.880;2023-05-07T03:56:42;2.83;;;1.37;;
17091;SDS011;8661;45.700;4.880;2023-05-07T03:59:10;4.20;;;1.47;;
17091;SDS011;8661;45.700;4.880;2023-05-07T04:01:38;2.40;;;1.60;;
17091;SDS011;8661;45.700;4.880;2023-05-07T04:04:05;8.07;;;1.70;;
17091;SDS011;8661;45.700;4.880;2023-05-07T04:06:31;1.77;;;1.60;;
17091;SDS011;8661;45.700;4.880;2023-05-07T04:08:58;3.73;;;1.50;;
17091;SDS011;8661;45.700;4.880;2023-05-07T04:11:25;2.23;;;1.50;;
17091;SDS011;8661;45.700;4.880;2023-05-07T04:13:52;4.40;;;1.70;;
17091;SDS011;8661;45.700;4.880;2023-05-07T04:16:21;3.10;;;2.20;;
17091;SDS011;8661;45.700;4.880;2023-05-07T04:18:47;3.87;;;1.77;;
17091;SDS011;8661;45.700;4.880;2023-05-07T04:21:14;2.37;;;1.63;;
17091;SDS011;8661;45.700;4.880;2023-05-07T04:23:41;2.13;;;1.93;;
17091;SDS011;8661;45.700;4.880;2023-05-07T04:26:08;3.00;;;1.60;;
17091;SDS011;8661;45.700;4.880;2023-05-07T04:28:35;2.47;;;1.90;;
17091;SDS011;8661;45.700;4.880;2023-05-07T04:31:02;4.40;;;1.70;;
17091;SDS011;8661;45.700;4.880;2023-05-07T04:33:30;2.53;;;1.60;;
17091;SDS011;8661;45.700;4.880;2023-05-07T04:35:58;4.03;;;1.77;;
17091;SDS011;8661;45.700;4.880;2023-05-07T04:38:27;2.43;;;1.67;;
17091;SDS011;8661;45.700;4.880;2023-05-07T04:40:55;5.83;;;1.60;;
17091;SDS011;8661;45.700;4.880;2023-05-07T04:43:22;2.70;;;1.63;;
17091;SDS011;8661;45.700;4.880;2023-05-07T04:45:49;7.37;;;1.90;;
17091;SDS011;8661;45.700;4.880;2023-05-07T04:48:16;2.67;;;1.67;;
17091;SDS011;8661;45.700;4.880;2023-05-07T04:50:48;3.13;;;1.70;;
17091;SDS011;8661;45.700;4.880;2023-05-07T04:53:15;2.70;;;1.67;;
17091;SDS011;8661;45.700;4.880;2023-05-07T04:55:42;4.80;;;2.00;;
17091;SDS011;8661;45.700;4.880;2023-05-07T04:58:10;3.77;;;2.27;;
17091;SDS011;8661;45.700;4.880;2023-05-07T05:00:37;4.33;;;1.90;;
17091;SDS011;8661;45.700;4.880;2023-05-07T05:03:04;1.67;;;1.57;;
17091;SDS011;8661;45.700;4.880;2023-05-07T05:05:32;3.17;;;1.90;;
17091;SDS011;8661;45.700;4.880;2023-05-07T05:08:00;3.17;;;1.90;;
17091;SDS011;8661;45.700;4.880;2023-05-07T05:10:27;2.33;;;1.70;;
17091;SDS011;8661;45.700;4.880;2023-05-07T05:12:54;3.30;;;2.10;;
17091;SDS011;8661;45.700;4.880;2023-05-07T05:15:21;3.97;;;1.80;;
17091;SDS011;8661;45.700;4.880;2023-05-07T05:17:48;3.23;;;1.90;;
17091;SDS011;8661;45.700;4.880;2023-05-07T05:20:15;2.60;;;2.07;;
17091;SDS011;8661;45.700;4.880;2023-05-07T05:22:42;3.13;;;1.97;;
17091;SDS011;8661;45.700;4.880;2023-05-07T05:25:10;2.33;;;2.03;;
17091;SDS011;8661;45.700;4.880;2023-05-07T05:27:37;2.10;;;1.90;;
17091;SDS011;8661;45.700;4.880;2023-05-07T05:30:04;4.37;;;2.20;;
17091;SDS011;8661;45.700;4.880;2023-05-07T05:32:32;6.03;;;2.00;;
17091;SDS011;8661;45.700;4.880;2023-05-07T05:34:58;2.60;;;2.10;;
17091;SDS011;8661;45.700;4.880;2023-05-07T05:37:25;5.53;;;1.97;;
17091;SDS011;8661;45.700;4.880;2023-05-07T05:39:52;2.70;;;2.03;;
17091;SDS011;8661;45.700;4.880;2023-05-07T05:42:22;6.03;;;2.20;;
17091;SDS011;8661;45.700;4.880;2023-05-07T05:44:49;3.77;;;2.00;;
17091;SDS011;8661;45.700;4.880;2023-05-07T05:47:15;3.43;;;2.07;;
17091;SDS011;8661;45.700;4.880;2023-05-07T05:49:42;3.40;;;2.10;;
17091;SDS011;8661;45.700;4.880;2023-05-07T05:52:09;2.70;;;1.87;;
17091;SDS011;8661;45.700;4.880;2023-05-07T05:54:38;3.70;;;2.03;;
17091;SDS011;8661;45.700;4.880;2023-05-07T05:57:05;2.97;;;1.80;;
17091;SDS011;8661;45.700;4.880;2023-05-07T05:59:33;2.47;;;1.80;;
17091;SDS011;8661;45.700;4.880;2023-05-07T06:02:00;2.60;;;1.73;;
17091;SDS011;8661;45.700;4.880;2023-05-07T06:04:27;1.63;;;1.53;;
17091;SDS011;8661;45.700;4.880;2023-05-07T06:06:54;2.00;;;1.40;;
17091;SDS011;8661;45.700;4.880;2023-05-07T06:09:21;3.47;;;1.47;;
17091;SDS011;8661;45.700;4.880;2023-05-07T06:11:48;3.00;;;1.60;;
17091;SDS011;8661;45.700;4.880;2023-05-07T06:14:15;5.17;;;1.57;;
17091;SDS011;8661;45.700;4.880;2023-05-07T06:16:43;3.23;;;1.70;;
17091;SDS011;8661;45.700;4.880;2023-05-07T06:19:10;6.83;;;1.93;;
17091;SDS011;8661;45.700;4.880;2023-05-07T06:21:38;2.57;;;1.33;;
17091;SDS011;8661;45.700;4.880;2023-05-07T06:24:05;4.37;;;1.83;;
17091;SDS011;8661;45.700;4.880;2023-05-07T06:26:32;3.37;;;1.30;;
17091;SDS011;8661;45.700;4.880;2023-05-07T06:28:59;1.77;;;1.50;;
17091;SDS011;8661;45.700;4.880;2023-05-07T06:31:29;4.53;;;1.40;;
17091;SDS011;8661;45.700;4.880;2023-05-07T06:33:58;3.67;;;1.70;;
17091;SDS011;8661;45.700;4.880;2023-05-07T06:36:27;3.73;;;1.73;;
17091;SDS011;8661;45.700;4.880;2023-05-07T06:38:54;5.67;;;1.63;;
17091;SDS011;8661;45.700;4.880;2023-05-07T06:41:21;3.33;;;1.23;;
17091;SDS011;8661;45.700;4.880;2023-05-07T06:43:48;3.87;;;1.60;;
17091;SDS011;8661;45.700;4.880;2023-05-07T06:46:15;4.60;;;1.67;;
17091;SDS011;8661;45.700;4.880;2023-05-07T06:48:42;2.17;;;1.60;;
17091;SDS011;8661;45.700;4.880;2023-05-07T06:51:10;1.87;;;1.60;;
17091;SDS011;8661;45.700;4.880;2023-05-07T06:53:37;2.03;;;1.50;;
17091;SDS011;8661;45.700;4.880;2023-05-07T06:56:04;1.50;;;1.40;;
17091;SDS011;8661;45.700;4.880;2023-05-07T06:58:31;5.50;;;1.73;;
17091;SDS011;8661;45.700;4.880;2023-05-07T07:00:59;1.97;;;1.67;;
17091;SDS011;8661;45.700;4.880;2023-05-07T07:03:26;2.43;;;1.90;;
17091;SDS011;8661;45.700;4.880;2023-05-07T07:05:53;2.07;;;1.90;;
17091;SDS011;8661;45.700;4.880;2023-05-07T07:08:21;3.60;;;2.30;;
17091;SDS011;8661;45.700;4.880;2023-05-07T07:10:48;2.80;;;2.47;;
17091;SDS011;8661;45.700;4.880;2023-05-07T07:13:15;3.50;;;2.50;;
17091;SDS011;8661;45.700;4.880;2023-05-07T07:15:43;5.27;;;2.50;;
17091;SDS011;8661;45.700;4.880;2023-05-07T07:18:10;3.20;;;2.10;;
17091;SDS011;8661;45.700;4.880;2023-05-07T07:20:37;3.53;;;2.90;;
17091;SDS011;8661;45.700;4.880;2023-05-07T07:23:04;3.47;;;2.73;;
17091;SDS011;8661;45.700;4.880;2023-05-07T07:25:32;3.23;;;2.80;;
17091;SDS011;8661;45.700;4.880;2023-05-07T07:27:59;4.40;;;3.23;;
17091;SDS011;8661;45.700;4.880;2023-05-07T07:30:26;9.27;;;3.40;;
17091;SDS011;8661;45.700;4.880;2023-05-07T07:32:53;5.43;;;3.00;;
17091;SDS011;8661;45.700;4.880;2023-05-07T07:35:20;3.50;;;2.60;;
17091;SDS011;8661;45.700;4.880;2023-05-07T07:37:47;4.47;;;2.97;;
17091;SDS011;8661;45.700;4.880;2023-05-07T07:40:15;5.00;;;2.90;;
17091;SDS011;8661;45.700;4.880;2023-05-07T07:42:44;2.90;;;2.30;;
17091;SDS011;8661;45.700;4.880;2023-05-07T07:45:10;3.33;;;2.93;;
17091;SDS011;8661;45.700;4.880;2023-05-07T07:47:38;4.30;;;2.43;;
17091;SDS011;8661;45.700;4.880;2023-05-07T07:50:05;5.00;;;2.90;;
17091;SDS011;8661;45.700;4.880;2023-05-07T07:52:33;3.87;;;2.30;;
17091;SDS011;8661;45.700;4.880;2023-05-07T07:55:00;5.00;;;2.33;;
17091;SDS011;8661;45.700;4.880;2023-05-07T07:57:27;3.90;;;2.40;;
17091;SDS011;8661;45.700;4.880;2023-05-07T07:59:55;4.03;;;2.40;;
17091;SDS011;8661;45.700;4.880;2023-05-07T08:02:22;5.97;;;2.70;;
17091;SDS011;8661;45.700;4.880;2023-05-07T08:04:49;8.23;;;7.03;;
17091;SDS011;8661;45.700;4.880;2023-05-07T08:07:16;3.93;;;2.40;;
17091;SDS011;8661;45.700;4.880;2023-05-07T08:09:45;8.20;;;3.30;;
17091;SDS011;8661;45.700;4.880;2023-05-07T08:12:13;3.47;;;2.10;;
17091;SDS011;8661;45.700;4.880;2023-05-07T08:14:40;3.70;;;2.23;;
17091;SDS011;8661;45.700;4.880;2023-05-07T08:17:08;7.07;;;2.30;;
17091;SDS011;8661;45.700;4.880;2023-05-07T08:19:35;5.73;;;2.10;;
17091;SDS011;8661;45.700;4.880;2023-05-07T08:22:02;3.10;;;2.20;;
17091;SDS011;8661;45.700;4.880;2023-05-07T08:24:29;3.67;;;2.63;;
17091;SDS011;8661;45.700;4.880;2023-05-07T08:26:56;3.10;;;2.37;;
17091;SDS011;8661;45.700;4.880;2023-05-07T08:29:23;2.70;;;2.40;;
17091;SDS011;8661;45.700;4.880;2023-05-07T08:31:50;4.20;;;2.30;;
17091;SDS011;8661;45.700;4.880;2023-05-07T08:34:18;4.53;;;2.53;;
17091;SDS011;8661;45.700;4.880;2023-05-07T08:36:45;3.70;;;2.30;;
17091;SDS011;8661;45.700;4.880;2023-05-07T08:39:13;3.27;;;2.00;;
17091;SDS011;8661;45.700;4.880;2023-05-07T08:41:41;3.10;;;1.80;;
17091;SDS011;8661;45.700;4.880;2023-05-07T08:44:11;4.27;;;2.20;;
17091;SDS011;8661;45.700;4.880;2023-05-07T08:46:39;2.93;;;2.30;;
17091;SDS011;8661;45.700;4.880;2023-05-07T08:49:08;2.77;;;2.40;;
17091;SDS011;8661;45.700;4.880;2023-05-07T08:51:36;3.67;;;2.10;;
17091;SDS011;8661;45.700;4.880;2023-05-07T08:54:04;2.50;;;1.83;;
17091;SDS011;8661;45.700;4.880;2023-05-07T08:56:32;3.37;;;2.07;;
17091;SDS011;8661;45.700;4.880;2023-05-07T08:58:59;4.37;;;2.33;;
17091;SDS011;8661;45.700;4.880;2023-05-07T09:01:25;3.90;;;3.00;;
17091;SDS011;8661;45.700;4.880;2023-05-07T09:03:52;8.03;;;3.53;;
17091;SDS011;8661;45.700;4.880;2023-05-07T09:06:20;3.67;;;2.27;;
17091;SDS011;8661;45.700;4.880;2023-05-07T09:08:51;4.97;;;2.47;;
17091;SDS011;8661;45.700;4.880;2023-05-07T09:11:19;4.93;;;2.90;;
17091;SDS011;8661;45.700;4.880;2023-05-07T09:13:47;4.17;;;2.87;;
17091;SDS011;8661;45.700;4.880;2023-05-07T09:16:15;3.33;;;1.90;;
17091;SDS011;8661;45.700;4.880;2023-05-07T09:18:42;3.30;;;1.90;;
17091;SDS011;8661;45.700;4.880;2023-05-07T09:21:10;3.53;;;1.60;;
17091;SDS011;8661;45.700;4.880;2023-05-07T09:23:37;3.67;;;1.77;;
17091;SDS011;8661;45.700;4.880;2023-05-07T09:26:06;3.03;;;2.07;;
17091;SDS011;8661;45.700;4.880;2023-05-07T09:28:37;5.13;;;2.10;;
17091;SDS011;8661;45.700;4.880;2023-05-07T09:31:06;3.30;;;1.90;;
17091;SDS011;8661;45.700;4.880;2023-05-07T09:33:35;1.80;;;1.53;;
17091;SDS011;8661;45.700;4.880;2023-05-07T09:36:03;3.60;;;1.60;;
17091;SDS011;8661;45.700;4.880;2023-05-07T09:38:30;3.70;;;1.50;;
17091;SDS011;8661;45.700;4.880;2023-05-07T09:41:08;2.13;;;1.63;;
17091;SDS011;8661;45.700;4.880;2023-05-07T09:43:37;3.93;;;2.00;;
17091;SDS011;8661;45.700;4.880;2023-05-07T09:46:06;3.77;;;1.90;;
17091;SDS011;8661;45.700;4.880;2023-05-07T09:48:38;2.43;;;1.60;;
17091;SDS011;8661;45.700;4.880;2023-05-07T09:51:11;2.87;;;1.57;;
17091;SDS011;8661;45.700;4.880;2023-05-07T09:53:47;3.27;;;2.00;;
17091;SDS011;8661;45.700;4.880;2023-05-07T09:56:17;2.07;;;1.63;;
17091;SDS011;8661;45.700;4.880;2023-05-07T09:58:46;4.83;;;2.00;;
17091;SDS011;8661;45.700;4.880;2023-05-07T10:01:13;1.87;;;1.67;;
17091;SDS011;8661;45.700;4.880;2023-05-07T10:03:40;3.73;;;2.00;;
17091;SDS011;8661;45.700;4.880;2023-05-07T10:06:09;3.40;;;2.40;;
17091;SDS011;8661;45.700;4.880;2023-05-07T10:08:40;2.10;;;1.50;;
17091;SDS011;8661;45.700;4.880;2023-05-07T10:11:08;2.80;;;2.07;;
17091;SDS011;8661;45.700;4.880;2023-05-07T10:13:37;3.77;;;2.20;;
17091;SDS011;8661;45.700;4.880;2023-05-07T10:16:04;3.60;;;2.60;;
17091;SDS011;8661;45.700;4.880;2023-05-07T10:18:33;10.60;;;6.40;;
17091;SDS011;8661;45.700;4.880;2023-05-07T10:21:01;28.53;;;14.97;;
17091;SDS011;8661;45.700;4.880;2023-05-07T10:23:32;34.40;;;19.53;;
17091;SDS011;8661;45.700;4.880;2023-05-07T10:26:00;12.20;;;6.00;;
17091;SDS011;8661;45.700;4.880;2023-05-07T10:28:30;21.23;;;8.70;;
17091;SDS011;8661;45.700;4.880;2023-05-07T10:31:13;3.83;;;1.60;;
17091;SDS011;8661;45.700;4.880;2023-05-07T10:33:49;1.87;;;1.27;;
17091;SDS011;8661;45.700;4.880;2023-05-07T10:36:18;1.03;;;0.90;;
17091;SDS011;8661;45.700;4.880;2023-05-07T10:38:45;1.07;;;0.73;;
17091;SDS011;8661;45.700;4.880;2023-05-07T10:41:12;1.00;;;0.80;;
17091;SDS011;8661;45.700;4.880;2023-05-07T10:43:44;0.30;;;0.30;;
17091;SDS011;8661;45.700;4.880;2023-05-07T10:46:14;0.20;;;0.20;;
17091;SDS011;8661;45.700;4.880;2023-05-07T10:51:36;1.10;;;0.67;;
17091;SDS011;8661;45.700;4.880;2023-05-07T10:54:21;0.20;;;0.20;;
17091;SDS011;8661;45.700;4.880;2023-05-07T10:56:48;0.10;;;0.10;;
17091;SDS011;8661;45.700;4.880;2023-05-07T10:59:37;0.20;;;0.20;;
17091;SDS011;8661;45.700;4.880;2023-05-07T11:02:09;0.10;;;0.10;;
17091;SDS011;8661;45.700;4.880;2023-05-07T11:04:39;0.10;;;0.10;;
17091;SDS011;8661;45.700;4.880;2023-05-07T11:09:56;0.00;;;0.00;;
17091;SDS011;8661;45.700;4.880;2023-05-07T11:15:33;0.07;;;0.07;;
17091;SDS011;8661;45.700;4.880;2023-05-07T11:18:05;0.10;;;0.10;;
17091;SDS011;8661;45.700;4.880;2023-05-07T11:20:52;0.00;;;0.00;;
17091;SDS011;8661;45.700;4.880;2023-05-07T11:26:23;0.10;;;0.10;;
17091;SDS011;8661;45.700;4.880;2023-05-07T11:28:51;0.00;;;0.00;;
17091;SDS011;8661;45.700;4.880;2023-05-07T11:31:22;0.10;;;0.10;;
17091;SDS011;8661;45.700;4.880;2023-05-07T11:33:53;0.00;;;0.00;;
17091;SDS011;8661;45.700;4.880;2023-05-07T11:36:22;0.00;;;0.00;;
17091;SDS011;8661;45.700;4.880;2023-05-07T11:38:50;0.00;;;0.00;;
17091;SDS011;8661;45.700;4.880;2023-05-07T11:41:17;0.00;;;0.00;;
17091;SDS011;8661;45.700;4.880;2023-05-07T11:43:57;0.00;;;0.00;;
17091;SDS011;8661;45.700;4.880;2023-05-07T11:46:27;0.00;;;0.00;;
17091;SDS011;8661;45.700;4.880;2023-05-07T11:48:56;0.00;;;0.00;;
17091;SDS011;8661;45.700;4.880;2023-05-07T11:51:23;0.00;;;0.00;;
17091;SDS011;8661;45.700;4.880;2023-05-07T11:53:55;0.00;;;0.00;;
17091;SDS011;8661;45.700;4.880;2023-05-07T11:56:22;0.10;;;0.10;;
17091;SDS011;8661;45.700;4.880;2023-05-07T11:58:49;0.10;;;0.10;;
17091;SDS011;8661;45.700;4.880;2023-05-07T12:01:17;0.10;;;0.10;;
17091;SDS011;8661;45.700;4.880;2023-05-07T12:03:44;0.00;;;0.00;;
17091;SDS011;8661;45.700;4.880;2023-05-07T12:06:14;0.20;;;0.20;;
17091;SDS011;8661;45.700;4.880;2023-05-07T12:08:42;0.00;;;0.00;;
17091;SDS011;8661;45.700;4.880;2023-05-07T12:11:12;0.00;;;0.00;;
17091;SDS011;8661;45.700;4.880;2023-05-07T12:13:41;0.00;;;0.00;;
17091;SDS011;8661;45.700;4.880;2023-05-07T12:16:08;0.10;;;0.10;;
17091;SDS011;8661;45.700;4.880;2023-05-07T12:18:35;0.10;;;0.10;;
17091;SDS011;8661;45.700;4.880;2023-05-07T12:21:04;0.00;;;0.00;;
17091;SDS011;8661;45.700;4.880;2023-05-07T12:23:33;0.10;;;0.10;;
17091;SDS011;8661;45.700;4.880;2023-05-07T12:26:01;0.00;;;0.00;;
17091;SDS011;8661;45.700;4.880;2023-05-07T12:28:30;0.00;;;0.00;;
17091;SDS011;8661;45.700;4.880;2023-05-07T12:31:02;0.00;;;0.00;;
17091;SDS011;8661;45.700;4.880;2023-05-07T12:33:29;0.00;;;0.00;;
17091;SDS011;8661;45.700;4.880;2023-05-07T12:35:56;0.00;;;0.00;;
17091;SDS011;8661;45.700;4.880;2023-05-07T12:38:24;0.00;;;0.00;;
17091;SDS011;8661;45.700;4.880;2023-05-07T12:40:53;0.00;;;0.00;;
17091;SDS011;8661;45.700;4.880;2023-05-07T12:43:21;0.20;;;0.20;;
17091;SDS011;8661;45.700;4.880;2023-05-07T12:45:50;0.10;;;0.10;;
17091;SDS011;8661;45.700;4.880;2023-05-07T12:48:19;0.00;;;0.00;;
17091;SDS011;8661;45.700;4.880;2023-05-07T12:50:48;0.00;;;0.00;;
17091;SDS011;8661;45.700;4.880;2023-05-07T12:53:16;0.00;;;0.00;;
17091;SDS011;8661;45.700;4.880;2023-05-07T12:55:43;0.00;;;0.00;;
17091;SDS011;8661;45.700;4.880;2023-05-07T12:58:16;0.00;;;0.00;;
17091;SDS011;8661;45.700;4.880;2023-05-07T13:00:44;0.00;;;0.00;;
17091;SDS011;8661;45.700;4.880;2023-05-07T13:03:16;0.10;;;0.10;;
17091;SDS011;8661;45.700;4.880;2023-05-07T13:05:48;0.00;;;0.00;;
17091;SDS011;8661;45.700;4.880;2023-05-07T13:08:23;0.73;;;0.20;;
17091;SDS011;8661;45.700;4.880;2023-05-07T13:10:50;0.00;;;0.00;;
17091;SDS011;8661;45.700;4.880;2023-05-07T13:13:19;0.10;;;0.10;;
17091;SDS011;8661;45.700;4.880;2023-05-07T13:15:46;0.00;;;0.00;;
17091;SDS011;8661;45.700;4.880;2023-05-07T13:18:13;0.10;;;0.10;;
17091;SDS011;8661;45.700;4.880;2023-05-07T13:20:40;0.00;;;0.00;;
17091;SDS011;8661;45.700;4.880;2023-05-07T13:23:07;0.00;;;0.00;;
17091;SDS011;8661;45.700;4.880;2023-05-07T13:25:34;0.00;;;0.00;;
17091;SDS011;8661;45.700;4.880;2023-05-07T13:28:01;0.10;;;0.10;;
17091;SDS011;8661;45.700;4.880;2023-05-07T13:30:30;0.00;;;0.00;;
17091;SDS011;8661;45.700;4.880;2023-05-07T13:32:57;0.10;;;0.10;;
17091;SDS011;8661;45.700;4.880;2023-05-07T13:35:24;0.00;;;0.00;;
17091;SDS011;8661;45.700;4.880;2023-05-07T13:37:51;0.07;;;0.07;;
17091;SDS011;8661;45.700;4.880;2023-05-07T13:40:19;0.00;;;0.00;;
17091;SDS011;8661;45.700;4.880;2023-05-07T13:42:47;0.00;;;0.00;;
17091;SDS011;8661;45.700;4.880;2023-05-07T13:45:14;0.00;;;0.00;;
17091;SDS011;8661;45.700;4.880;2023-05-07T13:47:42;0.00;;;0.00;;
17091;SDS011;8661;45.700;4.880;2023-05-07T13:50:09;0.00;;;0.00;;
17091;SDS011;8661;45.700;4.880;2023-05-07T13:52:38;0.00;;;0.00;;
17091;SDS011;8661;45.700;4.880;2023-05-07T13:55:08;0.10;;;0.10;;
17091;SDS011;8661;45.700;4.880;2023-05-07T13:57:35;0.00;;;0.00;;
17091;SDS011;8661;45.700;4.880;2023-05-07T14:00:03;0.00;;;0.00;;
17091;SDS011;8661;45.700;4.880;2023-05-07T14:02:31;0.10;;;0.10;;
17091;SDS011;8661;45.700;4.880;2023-05-07T14:04:59;0.03;;;0.03;;
17091;SDS011;8661;45.700;4.880;2023-05-07T14:07:26;0.00;;;0.00;;
17091;SDS011;8661;45.700;4.880;2023-05-07T14:09:54;0.00;;;0.00;;
17091;SDS011;8661;45.700;4.880;2023-05-07T14:12:21;3.10;;;1.10;;
17091;SDS011;8661;45.700;4.880;2023-05-07T14:14:48;1.17;;;0.90;;
17091;SDS011;8661;45.700;4.880;2023-05-07T14:17:16;0.97;;;0.80;;
17091;SDS011;8661;45.700;4.880;2023-05-07T14:19:43;1.50;;;0.93;;
17091;SDS011;8661;45.700;4.880;2023-05-07T14:22:12;1.13;;;0.83;;
17091;SDS011;8661;45.700;4.880;2023-05-07T14:24:39;1.63;;;0.93;;
17091;SDS011;8661;45.700;4.880;2023-05-07T14:27:06;0.80;;;0.80;;
17091;SDS011;8661;45.700;4.880;2023-05-07T14:29:33;2.10;;;1.40;;
17091;SDS011;8661;45.700;4.880;2023-05-07T14:32:01;1.83;;;1.10;;
17091;SDS011;8661;45.700;4.880;2023-05-07T14:34:28;1.20;;;1.03;;
17091;SDS011;8661;45.700;4.880;2023-05-07T14:36:55;1.03;;;0.90;;
17091;SDS011;8661;45.700;4.880;2023-05-07T14:39:23;1.80;;;0.80;;
17091;SDS011;8661;45.700;4.880;2023-05-07T14:41:51;2.40;;;0.90;;
17091;SDS011;8661;45.700;4.880;2023-05-07T14:44:19;1.03;;;0.77;;
17091;SDS011;8661;45.700;4.880;2023-05-07T14:46:46;1.37;;;0.80;;
17091;SDS011;8661;45.700;4.880;2023-05-07T14:49:13;4.63;;;0.60;;
17091;SDS011;8661;45.700;4.880;2023-05-07T14:51:42;0.97;;;0.60;;
17091;SDS011;8661;45.700;4.880;2023-05-07T14:54:10;0.60;;;0.60;;
17091;SDS011;8661;45.700;4.880;2023-05-07T14:56:38;0.60;;;0.50;;
17091;SDS011;8661;45.700;4.880;2023-05-07T14:59:05;1.77;;;0.67;;
17091;SDS011;8661;45.700;4.880;2023-05-07T15:01:33;0.50;;;0.50;;
17091;SDS011;8661;45.700;4.880;2023-05-07T15:04:00;0.40;;;0.40;;
17091;SDS011;8661;45.700;4.880;2023-05-07T15:06:29;0.40;;;0.40;;
17091;SDS011;8661;45.700;4.880;2023-05-07T15:08:56;0.77;;;0.60;;
17091;SDS011;8661;45.700;4.880;2023-05-07T15:11:23;0.93;;;0.40;;
17091;SDS011;8661;45.700;4.880;2023-05-07T15:13:52;0.83;;;0.40;;
17091;SDS011;8661;45.700;4.880;2023-05-07T15:16:19;1.60;;;0.30;;